Time;durP1;ratioP1;P1;durP2;ratioP2;P2;SDS_P1;SDS_P2;PMS_P1;PMS_P2;Temp;Humidity;BMP_temperature;BMP_pressure;BME280_temperature;BME280_humidity;BME280_pressure;Samples;Min_cycle;Max_cycle;Signal;HPM_P1;HPM_P2
2022/07/15 00:00:32;;;;;;;0.00;0.00;;;23.60;63.20;;;;;;5034771;28;20032;-76
2022/07/15 00:02:58;;;;;;;0.00;0.00;;;23.90;63.20;;;;;;5018524;28;20094;-75
2022/07/15 00:05:25;;;;;;;0.00;0.00;;;23.80;62.80;;;;;;5052243;28;20035;-76
2022/07/15 00:07:51;;;;;;;0.00;0.00;;;23.80;62.70;;;;;;5019098;28;20017;-76
2022/07/15 00:10:18;;;;;;;0.00;0.00;;;23.80;61.80;;;;;;5018125;28;20024;-76
2022/07/15 00:12:50;;;;;;;0.00;0.00;;;23.70;62.00;;;;;;5053289;28;20017;-76
2022/07/15 00:15:17;;;;;;;0.00;0.00;;;23.90;62.20;;;;;;5035193;28;20029;-77
2022/07/15 00:17:43;;;;;;;0.00;0.00;;;24.00;64.50;;;;;;5035142;28;20052;-77
2022/07/15 00:20:11;;;;;;;0.00;0.00;;;24.00;64.10;;;;;;5052250;28;20036;-77
2022/07/15 00:22:37;;;;;;;0.00;0.00;;;23.80;63.90;;;;;;5052449;28;20051;-76
2022/07/15 00:25:03;;;;;;;0.00;0.00;;;23.80;64.80;;;;;;5052129;28;20055;-77
2022/07/15 00:27:29;;;;;;;0.00;0.00;;;23.80;63.90;;;;;;5034244;28;20059;-76
2022/07/15 00:29:55;;;;;;;0.00;0.00;;;23.60;63.80;;;;;;5051967;28;20025;-77
2022/07/15 00:32:21;;;;;;;0.00;0.00;;;23.50;64.00;;;;;;5034366;28;20017;-77
2022/07/15 00:34:47;;;;;;;0.08;0.08;;;23.40;65.10;;;;;;5052154;28;20025;-77
2022/07/15 00:37:13;;;;;;;0.05;0.05;;;23.20;68.20;;;;;;5052028;28;20469;-77
2022/07/15 00:39:38;;;;;;;0.00;0.00;;;23.30;69.70;;;;;;5052120;28;20025;-77
2022/07/15 00:42:04;;;;;;;0.00;0.00;;;23.40;72.60;;;;;;5034085;28;20040;-78
2022/07/15 00:44:30;;;;;;;0.00;0.00;;;23.50;74.00;;;;;;5051880;28;20025;-78
2022/07/15 00:46:56;;;;;;;0.25;0.15;;;23.60;76.10;;;;;;5034050;28;20037;-77
2022/07/15 00:49:22;;;;;;;1.65;0.30;;;23.20;73.40;;;;;;5033918;28;20021;-76
2022/07/15 00:51:51;;;;;;;0.00;0.00;;;22.80;75.40;;;;;;5033971;28;20075;-77
2022/07/15 00:54:26;;;;;;;0.00;0.00;;;22.70;78.60;;;;;;5034034;28;20025;-77
2022/07/15 00:56:54;;;;;;;0.35;0.35;;;22.60;77.40;;;;;;5051730;28;20032;-77
2022/07/15 00:59:22;;;;;;;0.75;0.75;;;22.50;75.60;;;;;;5051688;28;20468;-77
2022/07/15 01:01:49;;;;;;;0.00;0.00;;;22.40;77.20;;;;;;5033811;28;20025;-77
2022/07/15 01:04:17;;;;;;;0.08;0.08;;;22.40;77.40;;;;;;5033841;28;20024;-77
2022/07/15 01:06:43;;;;;;;0.00;0.00;;;22.40;77.50;;;;;;5033716;28;20029;-77
2022/07/15 01:09:09;;;;;;;0.00;0.00;;;22.20;76.70;;;;;;5051572;28;20036;-77
2022/07/15 01:11:35;;;;;;;0.00;0.00;;;21.80;78.40;;;;;;5033829;28;20029;-77
2022/07/15 01:14:02;;;;;;;0.00;0.00;;;21.50;80.20;;;;;;5051772;28;20038;-76
2022/07/15 01:16:28;;;;;;;0.08;0.08;;;21.50;80.60;;;;;;5017462;28;20166;-77
2022/07/15 01:18:55;;;;;;;1.25;0.90;;;21.60;80.00;;;;;;5036588;28;20143;-76
2022/07/15 01:21:20;;;;;;;0.05;0.05;;;21.90;81.40;;;;;;5021221;28;20025;-77
2022/07/15 01:23:46;;;;;;;0.00;0.00;;;22.10;80.20;;;;;;5037849;28;20460;-76
2022/07/15 01:26:13;;;;;;;0.20;0.20;;;22.10;78.10;;;;;;5037680;28;20029;-76
2022/07/15 01:28:40;;;;;;;0.00;0.00;;;21.70;79.30;;;;;;5037573;28;20112;-77
2022/07/15 01:31:06;;;;;;;0.00;0.00;;;21.40;81.30;;;;;;5037413;28;20076;-76
2022/07/15 01:33:33;;;;;;;0.00;0.00;;;21.60;83.40;;;;;;5055743;28;20021;-76
2022/07/15 01:36:00;;;;;;;0.52;0.50;;;21.70;80.20;;;;;;5055409;28;20033;-78
2022/07/15 01:38:28;;;;;;;0.17;0.17;;;21.60;80.50;;;;;;5037550;28;20024;-77
2022/07/15 01:40:54;;;;;;;0.00;0.00;;;21.30;81.30;;;;;;5055223;28;20052;-78
2022/07/15 01:43:20;;;;;;;0.00;0.00;;;21.60;80.10;;;;;;5055190;28;20037;-76
2022/07/15 01:45:46;;;;;;;0.00;0.00;;;21.50;82.10;;;;;;5037317;28;20029;-77
2022/07/15 01:50:59;;;;;;;0.00;0.00;;;21.40;84.00;;;;;;5055021;28;20033;-77
2022/07/15 01:53:27;;;;;;;1.35;0.80;;;21.40;85.00;;;;;;5055128;28;20056;-76
2022/07/15 01:55:53;;;;;;;0.10;0.10;;;21.50;85.20;;;;;;5037096;28;20029;-77
2022/07/15 01:58:19;;;;;;;0.00;0.00;;;21.30;86.10;;;;;;5036884;28;20043;-77
2022/07/15 02:00:45;;;;;;;0.65;0.65;;;21.40;89.50;;;;;;5054783;28;20510;-77
2022/07/15 02:03:11;;;;;;;0.10;0.10;;;21.40;87.70;;;;;;5037077;28;20032;-77
2022/07/15 02:05:37;;;;;;;0.05;0.05;;;20.80;91.20;;;;;;5054722;28;20025;-76
2022/07/15 02:08:03;;;;;;;0.30;0.30;;;20.70;94.60;;;;;;5054864;28;20021;-77
2022/07/15 02:10:41;;;;;;;0.00;0.00;;;20.50;97.50;;;;;;5036760;28;20033;-76
2022/07/15 02:13:11;;;;;;;0.10;0.10;;;20.40;99.50;;;;;;5054718;28;20025;-77
2022/07/15 02:15:38;;;;;;;0.63;0.30;;;20.50;99.90;;;;;;5054596;28;20025;-76
2022/07/15 02:18:05;;;;;;;0.10;0.10;;;20.40;99.90;;;;;;5054669;28;20022;-77
2022/07/15 02:20:32;;;;;;;0.00;0.00;;;20.40;99.90;;;;;;5036528;28;20029;-77
2022/07/15 02:22:58;;;;;;;2.45;0.80;;;20.50;99.90;;;;;;5036700;28;20393;-77
2022/07/15 02:25:26;;;;;;;0.20;0.20;;;20.30;99.90;;;;;;5036322;28;20092;-77
2022/07/15 02:27:56;;;;;;;1.40;1.30;;;20.50;99.90;;;;;;5036461;28;20480;-76
2022/07/15 02:30:31;;;;;;;2.78;2.60;;;20.50;99.90;;;;;;5019611;28;20025;-77
2022/07/15 02:32:57;;;;;;;0.10;0.10;;;20.20;99.90;;;;;;5036358;28;20107;-77
2022/07/15 02:35:23;;;;;;;0.10;0.10;;;20.30;99.90;;;;;;5054359;28;20117;-76
2022/07/15 02:37:49;;;;;;;0.40;0.40;;;20.20;99.90;;;;;;5054150;28;20485;-77
2022/07/15 02:40:15;;;;;;;0.10;0.10;;;20.20;99.90;;;;;;5053952;28;20021;-77
2022/07/15 02:42:48;;;;;;;0.65;0.65;;;20.40;99.90;;;;;;5036437;28;20024;-78
2022/07/15 02:45:14;;;;;;;0.00;0.00;;;20.40;99.90;;;;;;5054122;28;20047;-77
2022/07/15 02:47:39;;;;;;;0.03;0.03;;;20.40;99.90;;;;;;5053975;28;20112;-77
2022/07/15 02:50:06;;;;;;;0.10;0.10;;;20.20;99.90;;;;;;5053797;28;20013;-77
2022/07/15 02:52:31;;;;;;;0.10;0.10;;;20.10;99.90;;;;;;5053956;28;20043;-76
2022/07/15 02:54:58;;;;;;;1.98;0.75;;;20.20;99.90;;;;;;5053875;28;20096;-77
2022/07/15 02:57:24;;;;;;;0.10;0.10;;;20.30;99.90;;;;;;5035978;28;20037;-76
2022/07/15 02:59:49;;;;;;;0.00;0.00;;;20.00;99.90;;;;;;5019233;28;20428;-76
2022/07/15 03:02:15;;;;;;;0.00;0.00;;;20.00;99.90;;;;;;5053831;28;20028;-77
2022/07/15 03:04:41;;;;;;;0.00;0.00;;;19.90;99.90;;;;;;5035895;28;20025;-77
2022/07/15 03:07:07;;;;;;;0.10;0.10;;;19.90;99.90;;;;;;5019174;28;20469;-75
2022/07/15 03:09:33;;;;;;;0.20;0.20;;;20.00;99.90;;;;;;5019063;28;20028;-77
2022/07/15 03:11:58;;;;;;;0.30;0.25;;;20.00;99.90;;;;;;5035856;28;20048;-76
2022/07/15 03:14:24;;;;;;;0.38;0.38;;;20.00;99.90;;;;;;5053448;28;20017;-77
2022/07/15 03:16:50;;;;;;;0.10;0.10;;;19.80;99.90;;;;;;5053724;28;20041;-76
2022/07/15 03:19:16;;;;;;;0.65;0.65;;;19.90;99.90;;;;;;5018891;28;20389;-77
2022/07/15 03:21:41;;;;;;;0.03;0.03;;;19.80;99.90;;;;;;5035477;28;20472;-77
2022/07/15 03:24:07;;;;;;;0.10;0.10;;;19.90;99.90;;;;;;5053335;28;20032;-77
2022/07/15 03:26:33;;;;;;;0.88;0.60;;;19.70;99.90;;;;;;5052892;28;20095;-77
2022/07/15 03:29:00;;;;;;;0.30;0.30;;;19.60;99.90;;;;;;5053054;28;20184;-77
2022/07/15 03:31:26;;;;;;;0.75;0.75;;;19.50;99.90;;;;;;5053151;28;20025;-76
2022/07/15 03:33:53;;;;;;;0.30;0.30;;;19.60;99.90;;;;;;5053213;28;20059;-77
2022/07/15 03:36:18;;;;;;;0.10;0.10;;;19.60;99.90;;;;;;5053170;28;20108;-77
2022/07/15 03:38:44;;;;;;;0.10;0.10;;;19.70;99.90;;;;;;5035145;28;20567;-76
2022/07/15 03:41:10;;;;;;;0.20;0.20;;;19.70;99.90;;;;;;5052058;28;20438;-76
2022/07/15 03:43:36;;;;;;;0.98;0.93;;;19.80;99.90;;;;;;5035250;28;20439;-76
2022/07/15 03:46:01;;;;;;;0.13;0.13;;;19.60;99.90;;;;;;5053145;28;20029;-77
2022/07/15 03:48:27;;;;;;;0.20;0.20;;;19.70;99.90;;;;;;5052988;28;20114;-77
2022/07/15 03:50:53;;;;;;;0.10;0.10;;;19.40;99.90;;;;;;5034905;28;20096;-77
2022/07/15 03:53:19;;;;;;;0.00;0.00;;;19.40;99.90;;;;;;5035136;28;20037;-78
2022/07/15 03:55:44;;;;;;;0.10;0.10;;;19.50;99.90;;;;;;5034804;28;20025;-78
2022/07/15 03:58:10;;;;;;;0.10;0.10;;;19.40;99.90;;;;;;5048984;22;20041;-77
2022/07/15 04:00:36;;;;;;;0.10;0.10;;;19.30;99.90;;;;;;5051810;28;20029;-75
2022/07/15 04:03:02;;;;;;;0.20;0.20;;;19.20;99.90;;;;;;5052564;28;20373;-75
2022/07/15 04:05:27;;;;;;;0.10;0.10;;;19.20;99.90;;;;;;5034565;28;20017;-76
2022/07/15 04:07:54;;;;;;;0.10;0.10;;;19.40;99.90;;;;;;5034551;28;20017;-75
2022/07/15 04:10:19;;;;;;;0.70;0.68;;;19.40;99.90;;;;;;5052127;28;20108;-75
2022/07/15 04:12:45;;;;;;;0.10;0.10;;;19.40;99.90;;;;;;5052143;28;20044;-75
2022/07/15 04:15:11;;;;;;;2.42;0.57;;;19.40;99.90;;;;;;5052312;28;20075;-77
2022/07/15 04:17:37;;;;;;;0.08;0.08;;;19.50;99.90;;;;;;5052267;28;20036;-76
2022/07/15 04:20:03;;;;;;;0.00;0.00;;;19.50;99.90;;;;;;5017748;28;20028;-75
2022/07/15 04:22:29;;;;;;;0.10;0.10;;;19.60;99.90;;;;;;5034294;28;20396;-76
2022/07/15 04:24:55;;;;;;;0.10;0.10;;;19.50;99.90;;;;;;5052132;28;20032;-75
2022/07/15 04:27:20;;;;;;;0.00;0.00;;;19.40;99.90;;;;;;5052091;28;20036;-76
2022/07/15 04:29:46;;;;;;;0.95;0.20;;;19.60;99.90;;;;;;5051929;28;20029;-75
2022/07/15 04:32:12;;;;;;;0.10;0.10;;;19.50;99.90;;;;;;5052479;28;20025;-76
2022/07/15 04:34:37;;;;;;;0.08;0.08;;;19.40;99.90;;;;;;5052029;28;20096;-76
2022/07/15 04:37:03;;;;;;;5.70;1.08;;;19.20;99.90;;;;;;5051798;28;20025;-77
2022/07/15 04:39:29;;;;;;;0.10;0.10;;;19.50;99.90;;;;;;5051699;28;20032;-75
2022/07/15 04:41:55;;;;;;;0.10;0.10;;;19.70;99.90;;;;;;5051856;28;20033;-75
2022/07/15 04:44:21;;;;;;;0.08;0.08;;;19.70;99.90;;;;;;5051925;28;20035;-76
2022/07/15 04:46:46;;;;;;;0.10;0.10;;;19.80;99.90;;;;;;5033785;28;20025;-76
2022/07/15 04:51:57;;;;;;;0.10;0.10;;;19.80;99.90;;;;;;5033862;28;20120;-75
2022/07/15 04:54:23;;;;;;;0.00;0.00;;;19.70;99.90;;;;;;5051749;28;20028;-75
2022/07/15 04:56:48;;;;;;;0.10;0.10;;;19.80;99.90;;;;;;5051922;28;20048;-76
2022/07/15 04:59:14;;;;;;;0.10;0.10;;;19.70;99.90;;;;;;5051503;28;20028;-76
2022/07/15 05:01:40;;;;;;;0.10;0.10;;;19.70;99.90;;;;;;5051698;28;20033;-76
2022/07/15 05:04:06;;;;;;;0.20;0.20;;;19.60;99.90;;;;;;5051586;28;20340;-75
2022/07/15 05:06:31;;;;;;;0.32;0.32;;;19.60;99.90;;;;;;5033804;28;20025;-75
2022/07/15 05:08:58;;;;;;;0.10;0.10;;;19.70;99.90;;;;;;5051486;28;20029;-76
2022/07/15 05:11:24;;;;;;;0.10;0.10;;;19.70;99.90;;;;;;5051555;28;20104;-76
2022/07/15 05:13:50;;;;;;;0.10;0.10;;;19.90;99.90;;;;;;5047718;28;20102;-76
2022/07/15 05:16:15;;;;;;;0.10;0.10;;;19.90;99.90;;;;;;5037101;28;20045;-76
2022/07/15 05:18:41;;;;;;;0.10;0.10;;;19.90;99.90;;;;;;5028076;28;20041;-76
2022/07/15 05:21:07;;;;;;;0.10;0.10;;;19.90;99.90;;;;;;5027515;28;20047;-77
2022/07/15 05:23:33;;;;;;;0.10;0.10;;;19.90;99.90;;;;;;5039104;28;20216;-76
2022/07/15 05:25:58;;;;;;;0.10;0.10;;;19.90;99.90;;;;;;5039170;28;20159;-76
2022/07/15 05:28:24;;;;;;;0.47;0.47;;;19.90;99.90;;;;;;5039139;28;20017;-76
2022/07/15 05:30:50;;;;;;;0.00;0.00;;;20.10;99.90;;;;;;5039136;28;20025;-76
2022/07/15 05:33:16;;;;;;;0.10;0.10;;;20.10;99.90;;;;;;5038509;28;20040;-77
2022/07/15 05:35:42;;;;;;;0.10;0.10;;;19.80;99.90;;;;;;5038721;28;20055;-78
2022/07/15 05:38:08;;;;;;;0.10;0.10;;;19.90;99.90;;;;;;5039950;28;20488;-76
2022/07/15 05:40:34;;;;;;;0.00;0.00;;;19.90;99.90;;;;;;5028285;28;20504;-75
2022/07/15 05:43:00;;;;;;;0.00;0.00;;;19.90;99.90;;;;;;5039629;28;20385;-79
2022/07/15 05:45:26;;;;;;;0.10;0.10;;;19.90;99.90;;;;;;5039794;28;20107;-76
2022/07/15 05:47:52;;;;;;;0.30;0.30;;;19.90;99.90;;;;;;5039407;28;20075;-76
2022/07/15 05:50:19;;;;;;;0.08;0.08;;;20.00;99.90;;;;;;5039599;28;20475;-76
2022/07/15 05:52:45;;;;;;;0.10;0.10;;;20.00;99.90;;;;;;5039509;28;20033;-77
2022/07/15 05:55:11;;;;;;;0.00;0.00;;;20.20;99.90;;;;;;5039247;28;20551;-79
2022/07/15 05:57:37;;;;;;;0.00;0.00;;;20.20;99.90;;;;;;5029955;28;20029;-76
2022/07/15 06:00:04;;;;;;;0.10;0.10;;;20.10;99.90;;;;;;5037422;28;20033;-75
2022/07/15 06:02:30;;;;;;;0.10;0.10;;;20.10;99.90;;;;;;5039788;28;20408;-75
2022/07/15 06:04:56;;;;;;;0.00;0.00;;;20.40;99.90;;;;;;5041561;28;20047;-75
2022/07/15 06:07:22;;;;;;;0.00;0.00;;;20.50;99.90;;;;;;5042954;28;20456;-75
2022/07/15 06:09:50;;;;;;;0.00;0.00;;;20.40;99.90;;;;;;5043060;28;20106;-76
2022/07/15 06:12:17;;;;;;;0.00;0.00;;;20.50;99.90;;;;;;5042732;28;20026;-76
2022/07/15 06:14:43;;;;;;;0.00;0.00;;;20.70;99.90;;;;;;5031726;28;20032;-76
2022/07/15 06:17:08;;;;;;;0.20;0.20;;;20.90;99.90;;;;;;5043393;28;20025;-75
2022/07/15 06:19:34;;;;;;;0.00;0.00;;;20.90;99.90;;;;;;5042033;28;20029;-77
2022/07/15 06:22:00;;;;;;;0.10;0.10;;;20.60;99.90;;;;;;5043510;28;20048;-76
2022/07/15 06:24:26;;;;;;;0.00;0.00;;;20.40;99.90;;;;;;5042313;28;21400;-76
2022/07/15 06:26:52;;;;;;;0.00;0.00;;;20.40;99.90;;;;;;5041361;28;20037;-77
2022/07/15 06:29:18;;;;;;;0.10;0.10;;;20.80;99.90;;;;;;5042748;28;20036;-78
2022/07/15 06:31:44;;;;;;;0.00;0.00;;;20.90;99.90;;;;;;5030007;28;20469;-79
2022/07/15 06:34:09;;;;;;;0.00;0.00;;;20.90;99.90;;;;;;5042815;28;20915;-79
2022/07/15 06:36:36;;;;;;;0.08;0.08;;;21.10;99.90;;;;;;5042697;28;20071;-77
2022/07/15 06:39:02;;;;;;;0.00;0.00;;;21.30;99.90;;;;;;5033000;28;20543;-77
2022/07/15 06:41:28;;;;;;;5.57;1.27;;;21.40;99.90;;;;;;5042766;28;20404;-76
2022/07/15 06:43:54;;;;;;;1.75;1.40;;;21.50;99.90;;;;;;5031284;28;20039;-76
2022/07/15 06:46:20;;;;;;;0.10;0.10;;;21.50;99.90;;;;;;5042032;28;20530;-76
2022/07/15 06:48:45;;;;;;;3.60;1.60;;;21.70;99.90;;;;;;5043185;28;20049;-76
2022/07/15 06:51:11;;;;;;;0.00;0.00;;;21.70;99.90;;;;;;5041758;28;20033;-76
2022/07/15 06:53:37;;;;;;;0.93;0.93;;;21.70;99.90;;;;;;5043101;28;20032;-76
2022/07/15 06:56:03;;;;;;;0.00;0.00;;;21.60;99.90;;;;;;5043110;28;20065;-78
2022/07/15 06:58:29;;;;;;;0.52;0.52;;;21.70;99.90;;;;;;5046354;28;20531;-77
2022/07/15 07:00:55;;;;;;;0.05;0.05;;;21.40;99.90;;;;;;5024639;28;20029;-78
2022/07/15 07:03:20;;;;;;;0.10;0.10;;;21.50;99.90;;;;;;5042348;28;20385;-78
2022/07/15 07:05:46;;;;;;;0.00;0.00;;;21.50;99.90;;;;;;5026687;28;20549;-78
2022/07/15 07:08:12;;;;;;;0.10;0.10;;;21.90;99.90;;;;;;5041133;28;20144;-78
2022/07/15 07:10:38;;;;;;;0.10;0.10;;;21.80;99.90;;;;;;5040546;28;20396;-78
2022/07/15 07:13:03;;;;;;;0.00;0.00;;;21.80;99.90;;;;;;5041513;28;20036;-78
2022/07/15 07:15:29;;;;;;;0.10;0.10;;;21.90;99.90;;;;;;5048101;28;20036;-78
2022/07/15 07:17:55;;;;;;;0.10;0.05;;;22.20;99.90;;;;;;5024515;28;21313;-78
2022/07/15 07:20:21;;;;;;;0.43;0.22;;;22.30;99.90;;;;;;5028626;28;20092;-78
2022/07/15 07:22:47;;;;;;;0.47;0.47;;;22.10;99.90;;;;;;5044804;28;20504;-78
2022/07/15 07:25:12;;;;;;;0.80;0.40;;;22.20;99.90;;;;;;5042718;28;20037;-78
2022/07/15 07:27:38;;;;;;;0.75;0.75;;;22.20;99.90;;;;;;5042227;28;20029;-78
2022/07/15 07:30:04;;;;;;;0.00;0.00;;;22.20;99.90;;;;;;5040850;28;20025;-78
2022/07/15 07:32:31;;;;;;;1.38;1.27;;;22.60;99.90;;;;;;5026596;28;20119;-81
2022/07/15 07:34:57;;;;;;;0.00;0.00;;;22.80;99.90;;;;;;5039706;28;20347;-80
2022/07/15 07:37:24;;;;;;;0.75;0.75;;;22.60;99.90;;;;;;5047523;28;20043;-81
2022/07/15 07:39:49;;;;;;;0.32;0.32;;;22.40;99.90;;;;;;5054349;28;20032;-81
2022/07/15 07:42:16;;;;;;;0.10;0.10;;;22.10;99.90;;;;;;5025967;28;20025;-80
2022/07/15 07:44:42;;;;;;;0.25;0.25;;;21.90;99.90;;;;;;5054165;28;20111;-82
2022/07/15 07:47:08;;;;;;;0.00;0.00;;;21.90;99.90;;;;;;5053244;28;20480;-82
2022/07/15 07:49:34;;;;;;;0.08;0.08;;;21.90;99.90;;;;;;5040274;28;20029;-82
2022/07/15 07:52:03;;;;;;;0.10;0.10;;;22.00;99.90;;;;;;5053113;28;20028;-81
2022/07/15 07:54:29;;;;;;;3.83;2.17;;;22.20;99.90;;;;;;5032664;28;20032;-81
2022/07/15 07:56:55;;;;;;;0.17;0.17;;;22.10;99.90;;;;;;5027028;28;20043;-77
2022/07/15 07:59:21;;;;;;;0.57;0.57;;;22.10;99.90;;;;;;5044501;28;20033;-77
2022/07/15 08:01:47;;;;;;;0.00;0.00;;;22.10;99.90;;;;;;5027113;28;20037;-78
2022/07/15 08:04:14;;;;;;;0.00;0.00;;;22.10;99.90;;;;;;5050671;28;20090;-78
2022/07/15 08:06:40;;;;;;;0.10;0.10;;;22.10;99.90;;;;;;5045617;28;20029;-78
2022/07/15 08:09:07;;;;;;;0.00;0.00;;;22.20;99.90;;;;;;5017336;28;20029;-77
2022/07/15 08:11:33;;;;;;;0.20;0.20;;;22.30;99.90;;;;;;5044942;28;20025;-76
2022/07/15 08:13:59;;;;;;;0.10;0.10;;;22.50;99.90;;;;;;5046440;28;20387;-80
2022/07/15 08:16:25;;;;;;;0.00;0.00;;;22.50;99.90;;;;;;5043775;28;20047;-78
2022/07/15 08:18:51;;;;;;;0.00;0.00;;;22.40;99.90;;;;;;5038159;28;20119;-77
2022/07/15 08:21:16;;;;;;;0.00;0.00;;;22.20;99.90;;;;;;5050490;28;20078;-81
2022/07/15 08:23:42;;;;;;;1.00;1.00;;;22.20;99.90;;;;;;5049688;28;20037;-80
2022/07/15 08:26:10;;;;;;;0.00;0.00;;;22.20;99.90;;;;;;5052101;28;20155;-81
2022/07/15 08:28:36;;;;;;;7.38;1.17;;;22.50;99.90;;;;;;5034797;28;20074;-81
2022/07/15 08:31:02;;;;;;;0.00;0.00;;;22.60;99.90;;;;;;5051930;28;20113;-81
2022/07/15 08:33:28;;;;;;;1.50;1.02;;;22.80;99.90;;;;;;5048223;28;20058;-81
2022/07/15 08:35:55;;;;;;;0.20;0.20;;;23.00;99.90;;;;;;5052345;28;20029;-82
2022/07/15 08:38:20;;;;;;;0.55;0.43;;;23.20;99.90;;;;;;5021139;28;20511;-80
2022/07/15 08:40:46;;;;;;;0.00;0.00;;;23.20;99.90;;;;;;5052625;28;20025;-82
2022/07/15 08:43:12;;;;;;;0.22;0.22;;;23.20;99.90;;;;;;5047254;28;20029;-81
2022/07/15 08:45:42;;;;;;;0.20;0.20;;;23.70;99.90;;;;;;5050177;28;20350;-81
2022/07/15 08:48:08;;;;;;;2.45;0.30;;;24.00;99.90;;;;;;5045378;28;20079;-80
2022/07/15 08:50:35;;;;;;;0.00;0.00;;;23.90;98.60;;;;;;5052151;28;20108;-82
2022/07/15 08:53:01;;;;;;;0.30;0.30;;;24.00;99.60;;;;;;5049916;28;20048;-80
2022/07/15 08:55:27;;;;;;;0.10;0.10;;;24.20;98.20;;;;;;5025146;28;20459;-81
2022/07/15 08:57:53;;;;;;;0.63;0.35;;;24.40;97.60;;;;;;5051257;28;20040;-77
2022/07/15 09:00:28;;;;;;;0.10;0.10;;;24.20;97.90;;;;;;5030791;28;20128;-81
2022/07/15 09:03:01;;;;;;;0.32;0.32;;;24.20;97.00;;;;;;5040411;28;20443;-80
2022/07/15 09:05:28;;;;;;;0.20;0.20;;;24.00;97.20;;;;;;5052337;28;20077;-79
2022/07/15 09:07:59;;;;;;;0.22;0.22;;;23.90;96.90;;;;;;5050291;28;20029;-81
2022/07/15 09:10:45;;;;;;;0.40;0.40;;;23.80;97.60;;;;;;5050274;28;20029;-80
2022/07/15 09:13:23;;;;;;;0.00;0.00;;;23.90;96.00;;;;;;5017145;28;20025;-79
2022/07/15 09:15:49;;;;;;;0.00;0.00;;;23.60;97.20;;;;;;5019633;28;20040;-81
2022/07/15 09:18:17;;;;;;;0.30;0.30;;;23.80;96.90;;;;;;5049976;28;20036;-82
2022/07/15 09:20:44;;;;;;;1.85;1.02;;;23.40;97.70;;;;;;5034017;28;20373;-81
2022/07/15 09:23:16;;;;;;;0.30;0.30;;;23.30;97.00;;;;;;5034214;28;20025;-81
2022/07/15 09:25:42;;;;;;;;;;;23.30;98.10;;;;;;5051956;28;20017;-81
2022/07/15 09:28:08;;;;;;;0.15;0.15;;;23.30;97.20;;;;;;5026747;28;19983;-80
2022/07/15 09:33:36;;;;;;;0.20;0.20;;;23.60;98.10;;;;;;5052008;28;20025;-80
2022/07/15 09:36:05;;;;;;;0.20;0.20;;;23.70;96.80;;;;;;5035328;28;20100;-80
2022/07/15 09:38:34;;;;;;;0.22;0.22;;;23.90;96.60;;;;;;5039920;28;20104;-81
2022/07/15 09:41:01;;;;;;;0.90;0.73;;;23.90;95.60;;;;;;5031974;28;20025;-81
2022/07/15 09:43:28;;;;;;;0.75;0.75;;;23.80;96.00;;;;;;5037805;28;20488;-81
2022/07/15 09:46:01;;;;;;;0.00;0.00;;;24.10;95.80;;;;;;5046542;28;20024;-81
2022/07/15 09:48:28;;;;;;;0.10;0.10;;;24.50;94.60;;;;;;5032693;28;20480;-82
2022/07/15 09:51:01;;;;;;;0.25;0.25;;;25.10;92.50;;;;;;5049139;28;20487;-81
2022/07/15 09:53:27;;;;;;;0.10;0.10;;;24.90;92.50;;;;;;5045822;28;20029;-82
2022/07/15 09:55:54;;;;;;;0.00;0.00;;;25.60;91.70;;;;;;5051135;28;20453;-82
2022/07/15 09:58:21;;;;;;;0.00;0.00;;;26.00;90.50;;;;;;5053991;22;20040;-73
2022/07/15 10:00:48;;;;;;;0.00;0.00;;;26.40;87.50;;;;;;5014020;28;20105;-76
2022/07/15 10:03:15;;;;;;;0.17;0.17;;;26.40;85.50;;;;;;5048470;28;20119;-77
2022/07/15 10:05:43;;;;;;;0.60;0.60;;;25.80;86.80;;;;;;5038121;28;20571;-76
2022/07/15 10:08:11;;;;;;;0.65;0.57;;;25.50;86.80;;;;;;5048552;28;20116;-76
2022/07/15 10:10:39;;;;;;;0.63;0.45;;;25.10;86.80;;;;;;5020585;28;20085;-75
2022/07/15 10:13:35;;;;;;;0.00;0.00;;;24.90;90.30;;;;;;5050298;28;20025;-75
2022/07/15 10:16:27;;;;;;;0.03;0.03;;;24.40;90.00;;;;;;5039202;28;20091;-76
2022/07/15 10:19:21;;;;;;;0.08;0.08;;;24.70;90.70;;;;;;5019869;28;20052;-77
2022/07/15 10:21:49;;;;;;;0.10;0.10;;;25.20;89.30;;;;;;5036845;28;20040;-76
2022/07/15 10:24:34;;;;;;;0.00;0.00;;;25.30;86.60;;;;;;5049941;28;20033;-77
2022/07/15 10:27:42;;;;;;;0.10;0.08;;;25.20;87.20;;;;;;5022904;28;20102;-79
2022/07/15 10:30:08;;;;;;;0.00;0.00;;;25.20;85.30;;;;;;5030007;28;20614;-75
2022/07/15 10:33:10;;;;;;;0.63;0.63;;;25.30;84.00;;;;;;5017385;28;20053;-76
2022/07/15 10:35:42;;;;;;;0.15;0.15;;;25.40;83.50;;;;;;5034877;28;20049;-76
2022/07/15 10:38:29;;;;;;;0.00;0.00;;;25.00;83.60;;;;;;5036496;28;20137;-76
2022/07/15 10:41:05;;;;;;;0.00;0.00;;;25.20;83.80;;;;;;5047491;28;20040;-76
2022/07/15 10:43:47;;;;;;;1.10;0.77;;;25.70;81.20;;;;;;5037609;28;20742;-76
2022/07/15 10:46:15;;;;;;;9.68;1.08;;;25.90;78.40;;;;;;5045474;28;20035;-77
2022/07/15 10:48:42;;;;;;;0.05;0.05;;;25.70;79.20;;;;;;5047129;28;20131;-77
2022/07/15 10:51:08;;;;;;;0.55;0.35;;;25.70;78.00;;;;;;5028087;28;20049;-77
2022/07/15 10:53:43;;;;;;;0.32;0.10;;;25.80;77.90;;;;;;5049939;28;20052;-77
2022/07/15 10:56:35;;;;;;;0.20;0.20;;;25.60;78.20;;;;;;5045598;28;20040;-77
2022/07/15 10:59:14;;;;;;;0.20;0.20;;;25.20;77.80;;;;;;5055069;28;20100;-78
2022/07/15 11:01:49;;;;;;;0.00;0.00;;;24.90;80.20;;;;;;5047489;28;20116;-77
2022/07/15 11:04:25;;;;;;;0.00;0.00;;;24.80;79.40;;;;;;5051266;28;20074;-77
2022/07/15 11:10:02;;;;;;;0.25;0.25;;;24.80;79.30;;;;;;5035557;28;20929;-74
2022/07/15 11:12:28;;;;;;;0.10;0.10;;;24.80;78.50;;;;;;5046910;28;20013;-69
2022/07/15 11:14:58;;;;;;;0.20;0.20;;;24.70;78.50;;;;;;5040908;28;20480;-72
2022/07/15 11:17:28;;;;;;;0.35;0.30;;;25.00;78.30;;;;;;5041638;28;20075;-72
2022/07/15 11:19:57;;;;;;;1.02;0.30;;;25.20;77.00;;;;;;5033125;28;20029;-77
2022/07/15 11:22:26;;;;;;;0.15;0.15;;;25.60;73.90;;;;;;5047708;28;20036;-73
2022/07/15 11:24:52;;;;;;;0.00;0.00;;;25.70;73.30;;;;;;5037201;28;20887;-77
2022/07/15 11:27:22;;;;;;;3.42;2.13;;;25.80;72.00;;;;;;5049897;28;20044;-77
2022/07/15 11:30:03;;;;;;;0.08;0.08;;;25.70;71.80;;;;;;5048818;28;20105;-77
2022/07/15 11:32:31;;;;;;;0.00;0.00;;;25.60;72.40;;;;;;5037330;28;20029;-76
2022/07/15 11:34:59;;;;;;;0.10;0.10;;;25.40;73.70;;;;;;5037471;28;20037;-78
2022/07/15 11:37:27;;;;;;;0.40;0.40;;;25.30;74.90;;;;;;5023222;28;20025;-77
2022/07/15 11:40:11;;;;;;;0.00;0.00;;;25.70;72.10;;;;;;5047443;28;20035;-77
2022/07/15 11:45:38;;;;;;;0.57;0.50;;;25.60;72.30;;;;;;5042712;28;20475;-77
2022/07/15 11:48:08;;;;;;;0.20;0.20;;;25.40;72.60;;;;;;5039196;28;20033;-77
2022/07/15 11:50:48;;;;;;;0.03;0.03;;;25.30;72.30;;;;;;5038600;28;20025;-77
2022/07/15 11:53:15;;;;;;;0.25;0.25;;;25.10;71.80;;;;;;5044031;28;21238;-77
2022/07/15 11:55:59;;;;;;;0.00;0.00;;;24.70;72.10;;;;;;5036733;28;20460;-77
2022/07/15 11:58:36;;;;;;;0.57;0.40;;;24.80;72.40;;;;;;5025771;28;20028;-77
2022/07/15 12:01:14;;;;;;;0.00;0.00;;;25.20;70.00;;;;;;5019946;28;20485;-78
2022/07/15 12:03:48;;;;;;;0.10;0.10;;;25.20;68.90;;;;;;5039379;28;20033;-76
2022/07/15 12:06:24;;;;;;;0.20;0.20;;;25.40;69.50;;;;;;5039514;28;20050;-78
2022/07/15 12:08:55;;;;;;;0.00;0.00;;;25.30;68.60;;;;;;5036215;28;20549;-77
2022/07/15 12:11:32;;;;;;;0.32;0.32;;;25.60;66.70;;;;;;5043379;28;20029;-77
2022/07/15 12:14:03;;;;;;;0.05;0.05;;;26.10;64.80;;;;;;5017397;28;20044;-77
2022/07/15 12:16:42;;;;;;;0.00;0.00;;;26.30;63.70;;;;;;5015962;28;20029;-77
2022/07/15 12:19:12;;;;;;;0.90;0.10;;;26.30;62.70;;;;;;5044297;28;20697;-77
2022/07/15 12:21:39;;;;;;;0.00;0.00;;;26.40;62.80;;;;;;5047007;28;20088;-77
2022/07/15 12:24:20;;;;;;;0.30;0.30;;;26.70;62.70;;;;;;5015465;28;20169;-72
2022/07/15 12:26:54;;;;;;;1.65;1.45;;;26.80;60.70;;;;;;5039521;28;20086;-74
2022/07/15 12:29:23;;;;;;;0.47;0.47;;;26.90;61.50;;;;;;5039270;28;20033;-73
2022/07/15 12:32:23;;;;;;;0.00;0.00;;;26.60;61.60;;;;;;5039285;28;20036;-72
2022/07/15 12:34:51;;;;;;;0.00;0.00;;;26.30;61.50;;;;;;5026249;28;20052;-72
2022/07/15 12:37:23;;;;;;;0.00;0.00;;;26.40;63.90;;;;;;5038727;28;20055;-72
2022/07/15 12:40:07;;;;;;;0.10;0.08;;;26.70;61.40;;;;;;5039576;28;20374;-72
2022/07/15 12:42:50;;;;;;;0.00;0.00;;;26.70;60.40;;;;;;5039195;28;20393;-72
2022/07/15 12:45:21;;;;;;;0.50;0.38;;;26.70;61.40;;;;;;5039464;28;20071;-73
2022/07/15 12:48:07;;;;;;;0.38;0.38;;;26.80;61.00;;;;;;5039148;28;20068;-72
2022/07/15 12:50:48;;;;;;;0.25;0.25;;;26.80;61.30;;;;;;5039180;28;20036;-71
2022/07/15 12:53:15;;;;;;;0.17;0.17;;;26.40;61.10;;;;;;5039523;28;20025;-72
2022/07/15 12:55:45;;;;;;;1.98;1.25;;;26.40;61.70;;;;;;5038589;28;20040;-72
2022/07/15 12:58:14;;;;;;;0.00;0.00;;;26.60;59.50;;;;;;5038900;28;20044;-73
2022/07/15 13:00:40;;;;;;;0.00;0.00;;;26.70;60.80;;;;;;5038932;28;20049;-73
2022/07/15 13:03:08;;;;;;;0.00;0.00;;;26.90;59.70;;;;;;5038927;28;20036;-73
2022/07/15 13:05:45;;;;;;;0.00;0.00;;;27.00;59.10;;;;;;5039462;28;20536;-72
2022/07/15 13:08:14;;;;;;;0.10;0.10;;;26.90;59.90;;;;;;5039370;28;20032;-73